Terminal Aerodrome Forecast
Issued by NWS

Home | Current Version | Previous Version | Text Only | Print | Product List | Glossary Off
Versions: 1 2 3 4 5 6 7 8 9 10 11 12 13

000
FTUS43 KDVN 240520
TAFBRL
TAF
KBRL 240520Z 2406/2506 19004KT P6SM SCT250
     FM241200 19007KT P6SM BKN250 WS012/23040KT
     FM241600 20015G23KT P6SM SCT250
     FM242300 25010KT P6SM BKN200=

USA.gov is the U.S. government's official web portal to all federal, state and local government web resources and services.